createdAt,value
2018-07-21T00:01:52.568Z,22.80
2018-07-21T00:04:22.644Z,22.70
2018-07-21T00:06:52.681Z,22.70
2018-07-21T00:09:22.600Z,22.60
2018-07-21T00:11:53.091Z,22.60
2018-07-21T00:14:23.178Z,22.50
2018-07-21T00:16:53.210Z,22.50
2018-07-21T00:19:23.148Z,22.50
2018-07-21T00:21:53.136Z,22.50
2018-07-21T00:24:23.113Z,22.40
2018-07-21T00:26:53.128Z,22.40
2018-07-21T00:31:52.760Z,22.50
2018-07-21T00:34:22.684Z,22.50
2018-07-21T00:36:52.614Z,22.50
2018-07-21T00:39:22.550Z,22.50
2018-07-21T00:44:22.594Z,22.60
2018-07-21T00:46:52.554Z,22.60
2018-07-21T00:49:22.483Z,22.50
2018-07-21T00:51:52.383Z,22.40
2018-07-21T00:54:22.707Z,22.40
2018-07-21T00:56:52.642Z,22.30
2018-07-21T00:59:22.735Z,22.30
2018-07-21T01:01:52.727Z,22.30
2018-07-21T01:06:52.386Z,22.20
2018-07-21T01:11:52.045Z,22.20
2018-07-21T01:16:51.643Z,22.10
2018-07-21T01:19:21.627Z,22.00
2018-07-21T01:21:51.555Z,22.00
2018-07-21T01:24:21.430Z,21.90
2018-07-21T01:26:51.438Z,21.90
2018-07-21T01:31:51.072Z,21.80
2018-07-21T01:34:20.994Z,21.80
2018-07-21T01:39:20.542Z,21.70
2018-07-21T01:41:50.494Z,21.70
2018-07-21T01:44:20.665Z,21.60
2018-07-21T01:46:50.633Z,21.60
2018-07-21T01:49:20.562Z,21.50
2018-07-21T01:56:49.703Z,21.50
2018-07-21T02:01:49.488Z,21.40
2018-07-21T02:04:19.432Z,21.30
2018-07-21T02:06:49.314Z,21.30
2018-07-21T02:11:48.895Z,21.20
2018-07-21T02:14:18.831Z,21.20
2018-07-21T02:16:48.854Z,21.20
2018-07-21T02:19:18.742Z,21.20
2018-07-21T02:21:48.663Z,21.20
2018-07-21T02:24:18.751Z,21.10
2018-07-21T02:26:48.668Z,21.10
2018-07-21T02:29:18.715Z,21.00
2018-07-21T02:34:18.191Z,21.00
2018-07-21T02:36:48.110Z,20.90
2018-07-21T02:39:18.109Z,20.90
2018-07-21T02:44:17.700Z,20.90
2018-07-21T02:46:47.693Z,20.90
2018-07-21T02:49:17.690Z,20.90
2018-07-21T02:56:46.891Z,20.70
2018-07-21T02:59:16.903Z,20.80
2018-07-21T03:01:46.849Z,20.70
2018-07-21T03:04:16.767Z,20.70
2018-07-21T03:06:46.694Z,20.70
2018-07-21T03:11:46.266Z,20.70
2018-07-21T03:14:16.207Z,20.70
2018-07-21T03:16:46.135Z,20.60
2018-07-21T03:21:45.662Z,20.50
2018-07-21T03:24:15.604Z,20.40
2018-07-21T03:26:45.622Z,20.30
2018-07-21T03:29:15.498Z,20.40
2018-07-21T03:31:45.485Z,20.30
2018-07-21T03:34:15.406Z,20.30
2018-07-21T03:36:45.339Z,20.30
2018-07-21T03:39:15.218Z,20.20
2018-07-21T03:41:45.232Z,20.10
2018-07-21T03:44:15.221Z,20.10
2018-07-21T03:46:45.254Z,20.00
2018-07-21T03:49:15.182Z,19.90
2018-07-21T03:51:45.059Z,19.90
2018-07-21T03:54:14.985Z,19.80
2018-07-21T03:56:44.907Z,19.80
2018-07-21T03:59:14.897Z,19.80
2018-07-21T04:01:44.771Z,19.80
2018-07-21T04:04:14.959Z,19.80
2018-07-21T04:06:44.851Z,19.70
2018-07-21T04:09:14.770Z,19.70
2018-07-21T04:11:44.686Z,19.70
2018-07-21T04:14:14.671Z,19.70
2018-07-21T04:16:44.600Z,19.70
2018-07-21T04:19:14.574Z,19.60
2018-07-21T04:21:44.559Z,19.70
2018-07-21T04:24:14.542Z,19.60
2018-07-21T04:26:44.390Z,19.50
2018-07-21T04:29:14.345Z,19.60
2018-07-21T04:31:44.273Z,19.60
2018-07-21T04:34:14.203Z,19.60
2018-07-21T04:36:44.134Z,19.70
2018-07-21T04:39:14.162Z,19.80
2018-07-21T04:41:44.091Z,19.90
2018-07-21T04:44:14.019Z,19.90
2018-07-21T04:46:43.911Z,19.90
2018-07-21T04:49:13.828Z,20.10
2018-07-21T04:51:43.867Z,20.00
2018-07-21T04:54:13.775Z,20.10
2018-07-21T04:56:43.764Z,20.00
2018-07-21T04:59:13.691Z,20.00
2018-07-21T05:01:43.620Z,20.00
2018-07-21T05:04:13.548Z,20.00
2018-07-21T05:06:43.477Z,20.00
2018-07-21T05:09:13.746Z,20.00
2018-07-21T05:11:43.746Z,20.00
2018-07-21T05:14:13.673Z,20.00
2018-07-21T05:16:43.558Z,20.00
2018-07-21T05:19:13.529Z,20.10
2018-07-21T05:21:43.457Z,20.10
2018-07-21T05:24:13.342Z,20.10
2018-07-21T05:26:43.271Z,20.20
2018-07-21T05:29:13.310Z,20.30
2018-07-21T05:31:43.273Z,20.40
2018-07-21T05:34:13.202Z,20.40
2018-07-21T05:36:43.097Z,20.50
2018-07-21T05:39:13.106Z,20.50
2018-07-21T05:41:42.987Z,20.50
2018-07-21T05:44:12.915Z,20.60
2018-07-21T05:46:42.826Z,20.60
2018-07-21T05:49:12.762Z,20.70
2018-07-21T05:51:42.780Z,20.70
2018-07-21T05:54:12.732Z,20.70
2018-07-21T05:56:42.682Z,20.80
2018-07-21T05:59:12.623Z,20.80
2018-07-21T06:06:41.922Z,21.00
2018-07-21T06:09:12.091Z,21.00
2018-07-21T06:11:42.291Z,21.10
2018-07-21T06:14:12.470Z,21.20
2018-07-21T06:16:42.499Z,21.30
2018-07-21T06:19:12.427Z,21.40
2018-07-21T06:21:42.355Z,21.50
2018-07-21T06:24:12.291Z,21.40
2018-07-21T06:26:42.231Z,21.60
2018-07-21T06:29:12.159Z,21.70
2018-07-21T06:31:42.173Z,21.70
2018-07-21T06:34:12.131Z,21.70
2018-07-21T06:36:42.237Z,21.80
2018-07-21T06:39:12.980Z,22.00
2018-07-21T06:41:43.321Z,22.10
2018-07-21T06:44:13.248Z,22.10
2018-07-21T06:46:43.135Z,22.20
2018-07-21T06:51:42.759Z,22.20
2018-07-21T06:56:42.481Z,22.10
2018-07-21T06:59:12.422Z,21.90
2018-07-21T07:01:42.338Z,21.80
2018-07-21T07:04:12.369Z,21.80
2018-07-21T07:06:42.297Z,21.70
2018-07-21T07:11:42.159Z,21.40
2018-07-21T07:14:12.087Z,21.30
2018-07-21T07:16:42.020Z,21.30
2018-07-21T07:19:11.947Z,21.20
2018-07-21T07:21:42.011Z,21.30
2018-07-21T07:26:41.627Z,21.20
2018-07-21T07:29:11.630Z,21.30
2018-07-21T07:31:41.575Z,21.40
2018-07-21T07:34:11.622Z,21.50
2018-07-21T07:36:41.649Z,21.50
2018-07-21T07:39:11.854Z,21.60
2018-07-21T07:41:41.783Z,21.70
2018-07-21T07:44:11.948Z,21.80
2018-07-21T07:46:41.966Z,21.90
2018-07-21T07:49:12.009Z,22.00
2018-07-21T07:54:11.576Z,22.00
2018-07-21T07:56:41.595Z,21.90
2018-07-21T07:59:11.511Z,21.90
2018-07-21T08:01:41.478Z,21.70
2018-07-21T08:04:11.435Z,21.70
2018-07-21T08:06:41.503Z,21.60
2018-07-21T08:09:12.980Z,21.50
2018-07-21T08:11:43.623Z,21.50
2018-07-21T08:14:13.811Z,21.50
2018-07-21T08:16:43.787Z,21.50
2018-07-21T08:19:13.687Z,21.40
2018-07-21T08:21:43.705Z,21.30
2018-07-21T08:24:13.777Z,21.30
2018-07-21T08:26:43.710Z,21.30
2018-07-21T08:29:13.634Z,21.30
2018-07-21T08:34:13.366Z,21.40
2018-07-21T08:36:43.331Z,21.30
2018-07-21T08:39:13.348Z,21.30
2018-07-21T08:41:43.254Z,21.40
2018-07-21T08:46:43.235Z,21.40
2018-07-21T08:49:13.164Z,21.50
2018-07-21T08:51:43.297Z,21.50
2018-07-21T08:54:13.328Z,21.30
2018-07-21T08:56:43.207Z,21.30
2018-07-21T08:59:13.193Z,21.30
2018-07-21T09:04:12.711Z,21.20
2018-07-21T09:06:42.634Z,21.20
2018-07-21T09:09:13.109Z,21.10
2018-07-21T09:11:43.040Z,21.00
2018-07-21T09:14:12.926Z,20.90
2018-07-21T09:16:42.996Z,20.90
2018-07-21T09:19:12.882Z,20.80
2018-07-21T09:21:42.820Z,20.90
2018-07-21T09:24:12.884Z,20.80
2018-07-21T09:26:42.900Z,20.70
2018-07-21T09:29:12.948Z,20.60
2018-07-21T09:31:42.826Z,20.60
2018-07-21T09:34:12.853Z,20.50
2018-07-21T09:36:42.722Z,20.60
2018-07-21T09:41:42.384Z,20.60
2018-07-21T09:44:12.460Z,20.60
2018-07-21T09:46:42.518Z,20.50
2018-07-21T09:49:12.579Z,20.50
2018-07-21T09:51:42.367Z,20.50
2018-07-21T09:56:41.914Z,20.40
2018-07-21T09:59:11.867Z,20.40
2018-07-21T10:04:11.534Z,20.30
2018-07-21T10:06:41.479Z,20.30
2018-07-21T10:09:12.109Z,20.20
2018-07-21T10:11:42.023Z,20.20
2018-07-21T10:14:11.963Z,20.20
2018-07-21T10:19:13.161Z,20.00
2018-07-21T10:21:43.096Z,19.90
2018-07-21T10:26:53.591Z,19.70
2018-07-21T10:29:23.781Z,19.50
2018-07-21T10:31:53.727Z,19.40
2018-07-21T10:34:23.704Z,19.40
2018-07-21T10:39:23.285Z,19.30
2018-07-21T10:41:53.268Z,19.40
2018-07-21T10:49:22.377Z,19.40
2018-07-21T10:51:52.364Z,19.40
2018-07-21T10:54:22.396Z,19.40
2018-07-21T11:02:42.358Z,19.40
2018-07-21T11:05:12.286Z,19.50
2018-07-21T11:07:42.319Z,19.50
2018-07-21T11:12:42.171Z,20.40
2018-07-21T11:17:41.825Z,19.60
2018-07-21T11:20:11.746Z,19.50
2018-07-21T11:22:41.711Z,19.30
2018-07-21T11:25:11.687Z,19.30
2018-07-21T11:27:41.744Z,19.20
2018-07-21T11:30:11.674Z,19.20
2018-07-21T11:35:11.609Z,19.20
2018-07-21T11:37:41.502Z,19.30
2018-07-21T11:40:11.614Z,19.30
2018-07-21T11:42:41.632Z,19.40
2018-07-21T11:45:11.575Z,19.60
2018-07-21T11:47:41.586Z,19.70
2018-07-21T11:50:11.515Z,19.70
2018-07-21T11:55:11.163Z,19.90
2018-07-21T11:57:41.070Z,20.00
2018-07-21T12:00:11.015Z,20.00
2018-07-21T12:02:40.962Z,20.00
2018-07-21T12:07:40.477Z,20.00
2018-07-21T12:10:10.422Z,20.00
2018-07-21T12:12:40.391Z,20.00
2018-07-21T12:17:40.110Z,19.90
2018-07-21T12:20:10.371Z,17.70
2018-07-21T12:22:40.375Z,20.00
2018-07-21T12:25:10.305Z,20.00
2018-07-21T12:30:09.854Z,20.20
2018-07-21T12:32:39.794Z,20.20
2018-07-21T12:35:09.691Z,20.20
2018-07-21T12:37:39.747Z,20.40
2018-07-21T12:40:09.686Z,20.50
2018-07-21T12:42:39.562Z,20.60
2018-07-21T12:45:09.510Z,20.80
2018-07-21T12:47:39.456Z,20.80
2018-07-21T12:50:09.400Z,20.80
2018-07-21T12:52:39.326Z,20.90
2018-07-21T12:57:39.930Z,21.10
2018-07-21T13:00:09.916Z,21.30
2018-07-21T13:02:39.944Z,21.40
2018-07-21T13:05:09.978Z,21.40
2018-07-21T13:07:39.891Z,21.40
2018-07-21T13:10:09.837Z,21.40
2018-07-21T13:12:39.765Z,21.60
2018-07-21T13:15:09.979Z,21.80
2018-07-21T13:17:40.063Z,21.90
2018-07-21T13:20:10.007Z,22.10
2018-07-21T13:22:39.934Z,22.00
2018-07-21T13:25:09.982Z,22.20
2018-07-21T13:27:39.912Z,22.30
2018-07-21T13:30:10.127Z,22.60
2018-07-21T13:32:40.054Z,22.90
2018-07-21T13:35:10.511Z,23.20
2018-07-21T13:37:40.462Z,23.30
2018-07-21T13:40:10.578Z,23.30
2018-07-21T13:42:40.515Z,23.60
2018-07-21T13:45:10.508Z,23.70
2018-07-21T13:47:40.442Z,23.60
2018-07-21T13:50:10.433Z,23.50
2018-07-21T13:52:40.360Z,23.40
2018-07-21T13:55:10.293Z,23.10
2018-07-21T14:00:09.879Z,22.80
2018-07-21T14:05:09.798Z,22.70
2018-07-21T14:07:39.726Z,22.60
2018-07-21T14:10:09.644Z,22.50
2018-07-21T14:12:39.857Z,22.50
2018-07-21T14:15:09.767Z,22.40
2018-07-21T14:20:09.259Z,22.40
2018-07-21T14:22:39.313Z,22.30
2018-07-21T14:25:09.242Z,22.30
2018-07-21T14:27:39.257Z,22.30
2018-07-21T14:30:09.457Z,22.40
2018-07-21T14:32:39.543Z,22.20
2018-07-21T14:35:09.459Z,22.20
2018-07-21T14:40:08.941Z,22.10
2018-07-21T14:42:39.195Z,22.00
2018-07-21T14:45:09.107Z,22.10
2018-07-21T14:47:39.054Z,22.20
2018-07-21T14:50:09.028Z,22.20
2018-07-21T14:52:38.990Z,22.20
2018-07-21T14:55:08.971Z,22.30
2018-07-21T14:57:38.855Z,22.30
2018-07-21T15:00:08.840Z,22.30
2018-07-21T15:02:38.799Z,22.20
2018-07-21T15:05:08.799Z,22.10
2018-07-21T15:07:38.728Z,22.10
2018-07-21T15:10:08.639Z,22.00
2018-07-21T15:12:38.567Z,22.00
2018-07-21T15:15:08.513Z,22.10
2018-07-21T15:17:38.439Z,22.10
2018-07-21T15:20:08.483Z,22.00
2018-07-21T15:22:38.629Z,21.80
2018-07-21T15:25:08.502Z,21.80
2018-07-21T15:27:38.463Z,21.80
2018-07-21T15:30:08.392Z,21.80
2018-07-21T15:32:38.274Z,21.80
2018-07-21T15:37:37.862Z,21.80
2018-07-21T15:40:07.788Z,22.00
2018-07-21T15:42:37.702Z,22.00
2018-07-21T15:45:07.630Z,22.00
2018-07-21T15:47:37.562Z,22.00
2018-07-21T15:50:07.478Z,22.00
2018-07-21T15:52:37.398Z,22.10
2018-07-21T15:55:07.376Z,22.10
2018-07-21T15:57:37.335Z,22.00
2018-07-21T16:02:37.175Z,21.80
2018-07-21T16:05:07.102Z,21.90
2018-07-21T16:07:37.015Z,21.80
2018-07-21T16:10:06.980Z,21.70
2018-07-21T16:12:36.887Z,21.50
2018-07-21T16:15:07.335Z,21.50
2018-07-21T16:20:07.073Z,21.60
2018-07-21T16:25:06.570Z,21.70
2018-07-21T16:27:36.491Z,21.60
2018-07-21T16:30:06.442Z,21.60
2018-07-21T16:35:05.979Z,21.60
2018-07-21T16:37:36.053Z,21.60
2018-07-21T16:40:05.965Z,21.50
2018-07-21T16:42:36.121Z,21.50
2018-07-21T16:45:06.140Z,21.40
2018-07-21T16:47:36.081Z,21.40
2018-07-21T16:50:06.046Z,21.50
2018-07-21T16:52:35.969Z,21.40
2018-07-21T16:55:06.065Z,21.20
2018-07-21T16:57:35.955Z,21.20
2018-07-21T17:00:05.924Z,21.10
2018-07-21T17:02:35.876Z,21.10
2018-07-21T17:05:06.090Z,21.20
2018-07-21T17:07:36.009Z,21.20
2018-07-21T17:10:06.046Z,21.10
2018-07-21T17:12:35.927Z,21.00
2018-07-21T17:15:06.399Z,20.90
2018-07-21T17:17:36.308Z,20.90
2018-07-21T17:20:06.255Z,20.80
2018-07-21T17:22:36.359Z,20.80
2018-07-21T17:25:06.294Z,20.80
2018-07-21T17:27:36.206Z,20.70
2018-07-21T17:30:06.302Z,20.70
2018-07-21T17:32:36.170Z,20.70
2018-07-21T17:35:06.103Z,20.70
2018-07-21T17:40:05.787Z,20.80
2018-07-21T17:42:35.746Z,20.70
2018-07-21T17:45:06.005Z,20.60
2018-07-21T17:47:35.943Z,20.50
2018-07-21T17:50:05.879Z,20.60
2018-07-21T17:52:35.853Z,20.60
2018-07-21T17:55:05.831Z,20.50
2018-07-21T17:57:35.750Z,20.40
2018-07-21T18:00:06.251Z,20.40
2018-07-21T18:02:36.178Z,20.40
2018-07-21T18:07:35.918Z,20.30
2018-07-21T18:10:05.875Z,20.20
2018-07-21T18:12:35.897Z,20.20
2018-07-21T18:15:05.949Z,20.10
2018-07-21T18:17:36.111Z,20.20
2018-07-21T18:20:06.088Z,20.20
2018-07-21T18:22:35.991Z,20.20
2018-07-21T18:25:05.918Z,20.10
2018-07-21T18:27:35.876Z,20.00
2018-07-21T18:30:05.931Z,19.90
2018-07-21T18:32:35.886Z,19.90
2018-07-21T18:35:05.824Z,19.90
2018-07-21T18:37:35.734Z,19.90
2018-07-21T18:40:05.863Z,19.80
2018-07-21T18:42:35.790Z,19.80
2018-07-21T18:45:05.887Z,19.70
2018-07-21T18:50:05.579Z,19.60
2018-07-21T18:52:35.518Z,19.60
2018-07-21T18:55:05.499Z,19.60
2018-07-21T18:57:35.530Z,19.50
2018-07-21T19:00:06.073Z,19.40
2018-07-21T19:02:35.982Z,19.40
2018-07-21T19:05:06.238Z,19.40
2018-07-21T19:07:36.183Z,19.30
2018-07-21T19:10:06.135Z,19.20
2018-07-21T19:12:50.381Z,19.20
2018-07-21T19:15:25.669Z,19.10
2018-07-21T19:17:55.582Z,19.10
2018-07-21T19:20:31.002Z,19.10
2018-07-21T19:23:01.147Z,19.00
2018-07-21T19:25:36.447Z,18.90
2018-07-21T19:28:06.359Z,18.90
2018-07-21T19:30:36.294Z,18.90
2018-07-21T19:33:06.267Z,18.90
2018-07-21T19:38:06.700Z,18.80
2018-07-21T19:40:37.091Z,18.80
2018-07-21T19:43:07.427Z,18.70
2018-07-21T19:45:37.406Z,18.70
2018-07-21T19:48:07.280Z,18.60
2018-07-21T19:53:07.445Z,18.50
2018-07-21T19:55:37.454Z,18.50
2018-07-21T19:58:07.521Z,18.50
2018-07-21T20:00:37.473Z,18.60
2018-07-21T20:03:07.466Z,18.50
2018-07-21T20:08:07.612Z,18.60
2018-07-21T20:10:37.803Z,18.50
2018-07-21T20:13:08.079Z,18.50
2018-07-21T20:15:38.138Z,18.50
2018-07-21T20:18:08.162Z,18.50
2018-07-21T20:20:38.464Z,18.50
2018-07-21T20:23:08.829Z,18.40
2018-07-21T20:25:38.699Z,18.40
2018-07-21T20:28:08.632Z,18.40
2018-07-21T20:30:38.553Z,18.40
2018-07-21T20:38:07.623Z,18.40
2018-07-21T20:40:37.549Z,18.40
2018-07-21T20:43:07.475Z,18.40
2018-07-21T20:45:37.409Z,18.30
2018-07-21T20:50:37.129Z,18.50
2018-07-21T20:53:07.034Z,18.50
2018-07-21T20:55:36.967Z,18.50
2018-07-21T21:00:36.742Z,18.40
2018-07-21T21:03:06.823Z,18.50
2018-07-21T21:05:36.801Z,18.50
2018-07-21T21:08:06.835Z,18.50
2018-07-21T21:10:36.733Z,18.50
2018-07-21T21:13:07.303Z,18.50
2018-07-21T21:15:37.232Z,18.50
2018-07-21T21:18:07.162Z,18.40
2018-07-21T21:20:37.256Z,18.40
2018-07-21T21:23:07.222Z,18.40
2018-07-21T21:25:37.151Z,18.30
2018-07-21T21:28:07.255Z,18.30
2018-07-21T21:30:37.214Z,18.30
2018-07-21T21:33:07.243Z,18.30
2018-07-21T21:35:37.191Z,18.30
2018-07-21T21:40:36.686Z,18.20
2018-07-21T21:43:06.957Z,18.20
2018-07-21T21:45:36.822Z,18.20
2018-07-21T21:48:06.847Z,18.20
2018-07-21T21:50:36.746Z,18.20
2018-07-21T21:53:07.038Z,18.20
2018-07-21T21:55:36.951Z,18.20
2018-07-21T21:58:07.141Z,18.20
2018-07-21T22:01:12.913Z,18.20
2018-07-21T22:03:43.280Z,18.20
2018-07-21T22:08:42.743Z,18.20
2018-07-21T22:11:12.731Z,18.20
2018-07-21T22:13:42.658Z,18.20
2018-07-21T22:16:12.534Z,18.20
2018-07-21T22:21:12.136Z,18.20
2018-07-21T22:23:42.031Z,18.20
2018-07-21T22:26:11.951Z,18.20
2018-07-21T22:28:41.922Z,18.10
2018-07-21T22:31:11.850Z,18.10
2018-07-21T22:33:41.731Z,18.10
2018-07-21T22:36:11.710Z,18.00
2018-07-21T22:38:41.637Z,18.00
2018-07-21T22:41:11.564Z,18.00
2018-07-21T22:43:41.499Z,18.00
2018-07-21T22:46:11.421Z,17.90
2018-07-21T22:48:41.325Z,17.90
2018-07-21T22:51:11.277Z,18.00
2018-07-21T22:53:41.218Z,18.00
2018-07-21T22:56:11.240Z,17.90
2018-07-21T22:58:41.169Z,17.90
2018-07-21T23:01:11.113Z,17.80
2018-07-21T23:03:40.998Z,17.90
2018-07-21T23:06:10.947Z,17.80
2018-07-21T23:08:40.983Z,17.80
2018-07-21T23:11:10.863Z,17.80
2018-07-21T23:13:40.838Z,17.70
2018-07-21T23:16:10.767Z,17.70
2018-07-21T23:18:40.658Z,17.70
2018-07-21T23:21:10.624Z,17.60
2018-07-21T23:23:40.552Z,17.60
2018-07-21T23:26:10.481Z,17.60
2018-07-21T23:28:40.409Z,17.60
2018-07-21T23:33:39.962Z,17.50
2018-07-21T23:36:09.851Z,17.40
2018-07-21T23:38:39.814Z,17.40
2018-07-21T23:41:09.744Z,17.40
2018-07-21T23:43:39.621Z,17.40
2018-07-21T23:46:09.600Z,17.30
2018-07-21T23:48:39.528Z,17.30
2018-07-21T23:51:09.559Z,17.30
2018-07-21T23:53:39.440Z,17.20
2018-07-21T23:56:09.417Z,17.20
2018-07-21T23:58:39.346Z,17.20
